createdAt,value
2018-07-24T00:03:33.717Z,101197.01
2018-07-24T00:08:36.786Z,101191.19
2018-07-24T00:13:39.842Z,101190.20
2018-07-24T00:18:42.970Z,101190.70
2018-07-24T00:23:46.134Z,101180.38
2018-07-24T00:28:49.235Z,101176.23
2018-07-24T00:33:52.310Z,101179.41
2018-07-24T00:38:55.353Z,101171.99
2018-07-24T00:43:58.353Z,101171.34
2018-07-24T00:49:01.362Z,101166.63
2018-07-24T00:54:04.625Z,101168.42
2018-07-24T00:59:07.684Z,101170.36
2018-07-24T01:04:10.697Z,101158.96
2018-07-24T01:09:13.718Z,101164.41
2018-07-24T01:14:16.726Z,101159.42
2018-07-24T01:19:19.790Z,101149.59
2018-07-24T01:24:22.849Z,101155.89
2018-07-24T01:29:25.853Z,101163.30
2018-07-24T01:34:29.026Z,101159.25
2018-07-24T01:39:32.161Z,101156.45
2018-07-24T01:44:35.209Z,101113.02
2018-07-24T01:49:38.279Z,101152.61
2018-07-24T01:54:41.324Z,101155.98
2018-07-24T01:59:44.360Z,101159.41
2018-07-24T02:04:47.451Z,101162.42
2018-07-24T02:09:50.516Z,101169.03
2018-07-24T02:14:53.607Z,101165.00
2018-07-24T02:19:56.718Z,101160.81
2018-07-24T02:24:59.867Z,101160.42
2018-07-24T02:30:03.030Z,101165.64
2018-07-24T02:35:06.137Z,101159.09
2018-07-24T02:40:09.214Z,101156.66
2018-07-24T02:45:12.315Z,101148.94
2018-07-24T02:50:15.439Z,101151.20
2018-07-24T02:55:19.093Z,101144.19
2018-07-24T03:00:22.195Z,101142.66
2018-07-24T03:05:25.234Z,101142.89
2018-07-24T03:10:28.644Z,101142.77
2018-07-24T03:15:31.714Z,101146.30
2018-07-24T03:20:34.778Z,101147.24
2018-07-24T03:25:37.802Z,101145.16
2018-07-24T03:30:40.867Z,101136.77
2018-07-24T03:35:43.957Z,101140.37
2018-07-24T03:40:46.978Z,101140.71
2018-07-24T03:45:50.048Z,101146.16
2018-07-24T03:50:53.109Z,101142.75
2018-07-24T03:55:56.191Z,101146.64
2018-07-24T04:00:59.215Z,101149.59
2018-07-24T04:06:02.270Z,101149.06
2018-07-24T04:11:05.852Z,101146.68
2018-07-24T04:16:08.885Z,101147.09
2018-07-24T04:21:11.975Z,101148.11
2018-07-24T04:26:15.134Z,101152.42
2018-07-24T04:31:18.167Z,101149.52
2018-07-24T04:36:21.265Z,101148.85
2018-07-24T04:41:24.309Z,101149.39
2018-07-24T04:46:27.352Z,101151.61
2018-07-24T04:51:30.429Z,101148.81
2018-07-24T04:56:33.477Z,101152.35
2018-07-24T05:01:36.441Z,101146.79
2018-07-24T05:06:39.470Z,101148.52
2018-07-24T05:11:43.246Z,101152.22
2018-07-24T05:16:46.276Z,101152.33
2018-07-24T05:21:49.273Z,101145.36
2018-07-24T05:26:52.297Z,101147.27
2018-07-24T05:31:55.348Z,101145.75
2018-07-24T05:36:58.378Z,101155.25
2018-07-24T05:42:01.389Z,101156.15
2018-07-24T05:47:04.782Z,101165.16
2018-07-24T05:52:07.762Z,101160.77
2018-07-24T05:57:10.803Z,101158.89
2018-07-24T06:02:13.852Z,101156.94
2018-07-24T06:07:16.905Z,101159.43
2018-07-24T06:12:19.954Z,101156.45
2018-07-24T06:17:23.034Z,101159.14
2018-07-24T06:22:26.131Z,101158.52
2018-07-24T06:27:29.165Z,101152.03
2018-07-24T06:32:32.218Z,101134.82
2018-07-24T06:37:35.294Z,101161.80
2018-07-24T06:42:38.380Z,101163.06
2018-07-24T06:47:41.438Z,101160.31
2018-07-24T06:52:44.766Z,101158.63
2018-07-24T06:57:47.823Z,101157.86
2018-07-24T07:02:50.844Z,101148.16
2018-07-24T07:07:53.924Z,101154.20
2018-07-24T07:12:56.994Z,101152.63
2018-07-24T07:18:00.123Z,101150.36
2018-07-24T07:23:03.242Z,101151.01
2018-07-24T07:28:06.592Z,101148.27
2018-07-24T07:33:09.609Z,101146.13
2018-07-24T07:38:12.609Z,101139.97
2018-07-24T07:43:15.749Z,101138.19
2018-07-24T07:48:18.853Z,101137.55
2018-07-24T07:53:21.879Z,101137.58
2018-07-24T07:58:24.894Z,101136.98
2018-07-24T08:03:27.964Z,101135.02
2018-07-24T08:08:31.052Z,101133.69
2018-07-24T08:13:34.143Z,101128.28
2018-07-24T08:18:37.184Z,101121.52
2018-07-24T08:23:40.189Z,101127.05
2018-07-24T08:28:43.213Z,101119.47
2018-07-24T08:33:46.274Z,101121.94
2018-07-24T08:38:49.403Z,101117.09
2018-07-24T08:43:52.453Z,101115.42
2018-07-24T08:48:56.552Z,101114.50
2018-07-24T08:53:59.968Z,101119.21
2018-07-24T08:59:02.714Z,101116.97
2018-07-24T09:04:05.851Z,101119.38
2018-07-24T09:09:10.521Z,101118.59
2018-07-24T09:14:13.600Z,101117.14
2018-07-24T09:19:16.749Z,101112.17
2018-07-24T09:24:19.790Z,101108.30
2018-07-24T09:29:22.822Z,101109.22
2018-07-24T09:34:25.879Z,101103.72
2018-07-24T09:39:28.997Z,101103.86
2018-07-24T09:44:31.998Z,101106.44
2018-07-24T09:49:35.111Z,101105.12
2018-07-24T09:54:38.165Z,101095.09
2018-07-24T09:59:41.258Z,101097.40
2018-07-24T10:04:44.293Z,101083.47
2018-07-24T10:09:47.330Z,101086.65
2018-07-24T10:14:50.325Z,101082.73
2018-07-24T10:19:53.378Z,101085.61
2018-07-24T10:24:56.418Z,101078.34
2018-07-24T10:29:59.463Z,101068.93
2018-07-24T10:35:02.537Z,101066.03
2018-07-24T10:40:05.666Z,101058.78
2018-07-24T10:45:08.666Z,101057.53
2018-07-24T10:50:11.715Z,101056.45
2018-07-24T10:55:14.909Z,101051.34
2018-07-24T11:00:18.107Z,101052.50
2018-07-24T11:05:21.212Z,101045.33
2018-07-24T11:10:24.222Z,101043.63
2018-07-24T11:15:27.291Z,101040.14
2018-07-24T11:20:30.454Z,101033.77
2018-07-24T11:25:33.497Z,101031.48
2018-07-24T11:30:36.577Z,101027.84
2018-07-24T11:35:39.631Z,101016.91
2018-07-24T11:40:42.687Z,101015.81
2018-07-24T11:45:45.726Z,101013.49
2018-07-24T11:50:48.802Z,100999.25
2018-07-24T11:55:51.883Z,100994.44
2018-07-24T12:00:54.881Z,100997.56
2018-07-24T12:05:57.919Z,100988.05
2018-07-24T12:11:00.940Z,100981.24
2018-07-24T12:16:04.062Z,100982.72
2018-07-24T12:21:07.251Z,100979.30
2018-07-24T12:26:10.305Z,100974.27
2018-07-24T12:31:13.301Z,100968.36
2018-07-24T12:36:16.479Z,100960.55
2018-07-24T12:41:19.502Z,100959.48
2018-07-24T12:46:22.597Z,100950.55
2018-07-24T12:51:25.638Z,100943.01
2018-07-24T12:56:28.719Z,100943.97
2018-07-24T13:01:31.746Z,100937.38
2018-07-24T13:06:34.791Z,100937.42
2018-07-24T13:11:37.914Z,100932.16
2018-07-24T13:16:41.009Z,100932.64
2018-07-24T13:21:44.100Z,100918.84
2018-07-24T13:26:47.191Z,100916.48
2018-07-24T13:31:50.278Z,100913.58
2018-07-24T13:36:53.275Z,100925.27
2018-07-24T13:41:56.346Z,100912.17
2018-07-24T13:46:59.439Z,100924.42
2018-07-24T13:52:02.504Z,100909.25
2018-07-24T13:57:05.478Z,100904.47
2018-07-24T14:02:08.563Z,100904.09
2018-07-24T14:07:11.778Z,100832.77
2018-07-24T14:12:14.889Z,100891.96
2018-07-24T14:17:17.935Z,100900.80
2018-07-24T14:22:22.987Z,100889.05
2018-07-24T14:27:26.126Z,100885.94
2018-07-24T14:32:29.370Z,100886.39
2018-07-24T14:37:32.559Z,100874.70
2018-07-24T14:42:35.891Z,100873.38
2018-07-24T14:47:40.187Z,100871.20
2018-07-24T14:52:44.930Z,100870.46
2018-07-24T14:57:48.924Z,100866.38
2018-07-24T15:02:52.038Z,100865.45
2018-07-24T15:07:56.036Z,100858.47
2018-07-24T15:13:02.579Z,100851.81
2018-07-24T15:18:05.960Z,100859.11
2018-07-24T15:23:08.999Z,100848.72
2018-07-24T15:28:12.143Z,100848.69
2018-07-24T15:33:15.541Z,100840.05
2018-07-24T15:38:18.675Z,100845.19
2018-07-24T15:43:21.730Z,100833.27
2018-07-24T15:48:24.763Z,100837.37
2018-07-24T15:53:28.357Z,100837.72
2018-07-24T15:58:37.379Z,100834.77
2018-07-24T16:03:40.438Z,100839.73
2018-07-24T16:08:43.463Z,100833.93
2018-07-24T16:13:46.583Z,100841.64
2018-07-24T16:18:49.736Z,100836.64
2018-07-24T16:23:52.826Z,100832.38
2018-07-24T16:28:55.970Z,100833.97
2018-07-24T16:33:58.994Z,100833.51
2018-07-24T16:39:02.090Z,100837.98
2018-07-24T16:44:05.218Z,100836.01
2018-07-24T16:49:08.242Z,100827.64
2018-07-24T16:54:11.285Z,100826.84
2018-07-24T16:59:14.525Z,100820.44
2018-07-24T17:04:17.590Z,100823.97
2018-07-24T17:09:21.410Z,100822.34
2018-07-24T17:14:24.433Z,100823.42
2018-07-24T17:19:27.494Z,100821.47
2018-07-24T17:24:30.534Z,100812.02
2018-07-24T17:29:33.926Z,100815.82
2018-07-24T17:34:36.925Z,100813.19
2018-07-24T17:39:39.942Z,100810.56
2018-07-24T17:44:44.152Z,100817.77
2018-07-24T17:49:47.220Z,100817.64
2018-07-24T17:54:50.265Z,100813.92
2018-07-24T17:59:53.425Z,100816.72
2018-07-24T18:04:56.503Z,100820.08
2018-07-24T18:09:59.694Z,100820.70
2018-07-24T18:15:02.951Z,100827.36
2018-07-24T18:20:06.046Z,100830.13
2018-07-24T18:25:09.727Z,100826.24
2018-07-24T18:30:12.883Z,100829.44
2018-07-24T18:35:15.974Z,100827.07
2018-07-24T18:45:28.807Z,100825.09
2018-07-24T18:50:31.940Z,100826.03
2018-07-24T18:55:34.968Z,100829.23
2018-07-24T19:00:37.977Z,100832.80
2018-07-24T19:05:41.131Z,100832.96
2018-07-24T19:10:44.163Z,100834.38
2018-07-24T19:15:47.238Z,100834.63
2018-07-24T19:20:50.314Z,100840.95
2018-07-24T19:25:53.365Z,100847.30
2018-07-24T19:30:56.532Z,100849.13
2018-07-24T19:35:59.890Z,100855.38
2018-07-24T19:41:05.620Z,100856.25
2018-07-24T19:46:08.713Z,100856.73
2018-07-24T19:51:12.911Z,100854.51
2018-07-24T19:56:16.003Z,100862.74
2018-07-24T20:01:19.090Z,100855.23
2018-07-24T20:06:22.126Z,100861.41
2018-07-24T20:11:25.209Z,100864.19
2018-07-24T20:16:28.203Z,100857.17
2018-07-24T20:21:31.363Z,100863.64
2018-07-24T20:26:34.446Z,100866.58
2018-07-24T20:31:37.844Z,100731.02
2018-07-24T20:36:40.907Z,100866.02
2018-07-24T20:41:44.102Z,100873.61
2018-07-24T20:46:47.170Z,100871.44
2018-07-24T20:51:50.234Z,100864.88
2018-07-24T20:56:53.253Z,100868.57
2018-07-24T21:01:56.284Z,100863.33
2018-07-24T21:06:59.331Z,100863.84
2018-07-24T21:12:02.345Z,100864.52
2018-07-24T21:17:05.554Z,100869.40
2018-07-24T21:22:08.616Z,100870.37
2018-07-24T21:27:11.654Z,100874.19
2018-07-24T21:32:14.725Z,100888.97
2018-07-24T21:37:17.786Z,100884.71
2018-07-24T21:42:20.819Z,100881.83
2018-07-24T21:47:23.834Z,100878.72
2018-07-24T21:52:26.944Z,100880.47
2018-07-24T21:57:30.039Z,100888.44
2018-07-24T22:02:33.110Z,100891.28
2018-07-24T22:07:36.411Z,100883.89
2018-07-24T22:12:39.469Z,100888.31
2018-07-24T22:17:43.180Z,100887.85
2018-07-24T22:22:46.446Z,100896.71
2018-07-24T22:27:49.519Z,100895.52
2018-07-24T22:32:52.537Z,100884.10
2018-07-24T22:37:55.629Z,100891.06
2018-07-24T22:42:58.645Z,100886.76
2018-07-24T22:48:01.729Z,100891.44
2018-07-24T22:53:04.861Z,100892.92
2018-07-24T22:58:07.865Z,100896.73
2018-07-24T23:03:11.498Z,100892.11
2018-07-24T23:08:14.525Z,100893.33
2018-07-24T23:13:17.593Z,100892.73
2018-07-24T23:18:20.638Z,100895.54
2018-07-24T23:23:23.673Z,100889.88
2018-07-24T23:28:26.763Z,100887.90
2018-07-24T23:33:29.880Z,100887.25
2018-07-24T23:38:33.022Z,100887.71
2018-07-24T23:43:36.022Z,100882.43
2018-07-24T23:48:39.050Z,100885.17
2018-07-24T23:53:42.047Z,100882.57
2018-07-24T23:58:45.062Z,100888.36
